Terminal Aerodrome Forecast
Issued by NWS Charleston, WV

Current Version | Previous Version | Graphics & Text | Print | Product List | Glossary On
Versions: 1 2 3 4 5 6 7 8 9 10 11 12 13 14 15 16 17 18 19 20 21 22 23
000
FTUS41 KRLX 270551
TAFEKN
TAF
KEKN 270551Z 2706/2806 00000KT P6SM FEW250
     FM270900 17004KT 4SM BR FEW250
     FM271300 17007KT P6SM SCT250
     FM272100 21008KT 3SM SHRA BR VCTS BKN050CB
     FM272200 21008KT 6SM SHRA BR VCTS BKN050CB
     FM272300 22007KT P6SM BKN050
     FM280300 24004KT P6SM BKN015
     FM280500 25004KT P6SM BKN025=

USA.gov is the U.S. government's official web portal to all federal, state and local government web resources and services.